Aéroclub Aigle de St-Maur - Visite médicale
 LFPM 201130Z AUTO VRB02KT CAVOK 23/16 Q1015

Visite Médicale

Le médecin habituel sera en nos locaux le :

Prochaine visite en Septembre



de 15h00 à 16h30

 

Modification du régime des visites médicales :
Le certificat médical a une validité de :

. 5 ans pour les pilotes âgés de moins de 40 ans

. 2 ans après 40 ans

. 1 ans après 50 ans

_____________________

. Un électro-cardiogramme de repos est obligatoire à la premiere visite quel que soit l'age .

. Entre 40 ans et 50 ans un électro-cardiogramme de repos est obligatoire pour la 1ere visite dans cet intervalle.

. Après 50 ans un électro-cardiogramme de repos est obligatoire tous les deux ans.

. à faire par un cardiologue avant la visite aéro.

. Venir aussi avec la prescription des verres correcteurs le cas échéant


Voir le texte officiel ici: site LegiFrance.gouv